sensor_id;sensor_type;location;lat;lon;timestamp;pressure;altitude;pressure_sealevel;temperature;humidity
13235;BME280;6683;48.506;9.050;2024-01-16T00:02:53;97579.63;;;2.80;55.11
13235;BME280;6683;48.506;9.050;2024-01-16T00:05:55;97581.28;;;2.81;55.24
13235;BME280;6683;48.506;9.050;2024-01-16T00:08:57;97588.09;;;2.82;55.35
13235;BME280;6683;48.506;9.050;2024-01-16T00:12:00;97576.91;;;2.81;55.19
13235;BME280;6683;48.506;9.050;2024-01-16T00:15:04;97572.47;;;2.82;55.33
13235;BME280;6683;48.506;9.050;2024-01-16T00:18:07;97575.75;;;2.84;55.43
13235;BME280;6683;48.506;9.050;2024-01-16T00:21:09;97568.59;;;2.86;54.86
13235;BME280;6683;48.506;9.050;2024-01-16T00:24:12;97579.84;;;2.86;55.16
13235;BME280;6683;48.506;9.050;2024-01-16T00:27:14;97575.47;;;2.87;55.22
13235;BME280;6683;48.506;9.050;2024-01-16T00:30:18;97577.09;;;2.88;54.98
13235;BME280;6683;48.506;9.050;2024-01-16T00:33:20;97582.16;;;2.89;54.84
13235;BME280;6683;48.506;9.050;2024-01-16T00:36:23;97578.56;;;2.90;55.07
13235;BME280;6683;48.506;9.050;2024-01-16T00:39:25;97584.59;;;2.91;54.70
13235;BME280;6683;48.506;9.050;2024-01-16T00:42:27;97578.56;;;2.90;55.02
13235;BME280;6683;48.506;9.050;2024-01-16T00:45:30;97578.44;;;2.92;54.93
13235;BME280;6683;48.506;9.050;2024-01-16T00:48:32;97585.25;;;2.93;55.01
13235;BME280;6683;48.506;9.050;2024-01-16T00:51:34;97580.03;;;2.93;54.89
13235;BME280;6683;48.506;9.050;2024-01-16T00:54:36;97586.25;;;2.92;54.84
13235;BME280;6683;48.506;9.050;2024-01-16T00:57:39;97588.03;;;2.91;54.68
13235;BME280;6683;48.506;9.050;2024-01-16T01:00:43;97583.66;;;2.92;54.71
13235;BME280;6683;48.506;9.050;2024-01-16T01:03:45;97584.44;;;2.92;54.75
13235;BME280;6683;48.506;9.050;2024-01-16T01:06:47;97591.13;;;2.95;54.86
13235;BME280;6683;48.506;9.050;2024-01-16T01:09:49;97588.53;;;2.95;54.71
13235;BME280;6683;48.506;9.050;2024-01-16T01:12:51;97591.13;;;2.95;54.49
13235;BME280;6683;48.506;9.050;2024-01-16T01:15:55;97597.34;;;2.94;54.74
13235;BME280;6683;48.506;9.050;2024-01-16T01:18:57;97589.34;;;2.95;54.43
13235;BME280;6683;48.506;9.050;2024-01-16T01:21:59;97588.53;;;2.95;54.47
13235;BME280;6683;48.506;9.050;2024-01-16T01:25:01;97585.94;;;2.95;54.75
13235;BME280;6683;48.506;9.050;2024-01-16T01:28:04;97587.88;;;2.93;54.85
13235;BME280;6683;48.506;9.050;2024-01-16T01:31:08;97594.72;;;2.94;54.51
13235;BME280;6683;48.506;9.050;2024-01-16T01:34:10;97596.34;;;2.95;54.41
13235;BME280;6683;48.506;9.050;2024-01-16T01:37:12;97597.00;;;2.97;54.61
13235;BME280;6683;48.506;9.050;2024-01-16T01:40:15;97593.75;;;2.95;55.08
13235;BME280;6683;48.506;9.050;2024-01-16T01:43:19;97600.59;;;2.96;54.58
13235;BME280;6683;48.506;9.050;2024-01-16T01:46:23;97598.94;;;2.95;54.33
13235;BME280;6683;48.506;9.050;2024-01-16T01:49:26;97609.53;;;2.93;54.53
13235;BME280;6683;48.506;9.050;2024-01-16T01:52:30;97609.38;;;2.95;55.02
13235;BME280;6683;48.506;9.050;2024-01-16T01:55:32;97612.00;;;2.95;54.61
13235;BME280;6683;48.506;9.050;2024-01-16T01:58:34;97621.47;;;2.96;55.18
13235;BME280;6683;48.506;9.050;2024-01-16T02:01:41;97618.03;;;2.95;54.71
13235;BME280;6683;48.506;9.050;2024-01-16T02:04:44;97623.91;;;2.97;54.79
13235;BME280;6683;48.506;9.050;2024-01-16T02:07:47;97629.13;;;2.97;54.63
13235;BME280;6683;48.506;9.050;2024-01-16T02:10:50;97625.69;;;2.97;54.81
13235;BME280;6683;48.506;9.050;2024-01-16T02:13:52;97631.88;;;2.96;54.62
13235;BME280;6683;48.506;9.050;2024-01-16T02:16:55;97629.56;;;2.93;54.74
13235;BME280;6683;48.506;9.050;2024-01-16T02:19:57;97629.22;;;2.88;54.78
13235;BME280;6683;48.506;9.050;2024-01-16T02:23:03;97628.03;;;2.82;54.69
13235;BME280;6683;48.506;9.050;2024-01-16T02:26:07;97624.75;;;2.80;54.60
13235;BME280;6683;48.506;9.050;2024-01-16T02:29:09;97625.06;;;2.77;54.84
13235;BME280;6683;48.506;9.050;2024-01-16T02:32:12;97621.13;;;2.73;54.66
13235;BME280;6683;48.506;9.050;2024-01-16T02:35:15;97623.03;;;2.71;54.35
13235;BME280;6683;48.506;9.050;2024-01-16T02:38:19;97623.38;;;2.68;54.60
13235;BME280;6683;48.506;9.050;2024-01-16T02:41:22;97625.31;;;2.66;54.48
13235;BME280;6683;48.506;9.050;2024-01-16T02:44:25;97623.53;;;2.67;55.06
13235;BME280;6683;48.506;9.050;2024-01-16T02:47:27;97616.50;;;2.67;54.55
13235;BME280;6683;48.506;9.050;2024-01-16T02:50:29;97614.88;;;2.66;54.50
13235;BME280;6683;48.506;9.050;2024-01-16T02:53:31;97610.94;;;2.62;54.72
13235;BME280;6683;48.506;9.050;2024-01-16T02:56:35;97611.09;;;2.61;54.27
13235;BME280;6683;48.506;9.050;2024-01-16T02:59:37;97617.56;;;2.57;54.34
13235;BME280;6683;48.506;9.050;2024-01-16T03:02:39;97616.09;;;2.54;54.62
13235;BME280;6683;48.506;9.050;2024-01-16T03:05:41;97625.84;;;2.52;54.21
13235;BME280;6683;48.506;9.050;2024-01-16T03:08:43;97625.47;;;2.47;54.54
13235;BME280;6683;48.506;9.050;2024-01-16T03:11:47;97622.63;;;2.40;54.41
13235;BME280;6683;48.506;9.050;2024-01-16T03:14:49;97616.41;;;2.33;54.52
13235;BME280;6683;48.506;9.050;2024-01-16T03:17:51;97616.84;;;2.29;54.44
13235;BME280;6683;48.506;9.050;2024-01-16T03:20:53;97615.50;;;2.25;54.52
13235;BME280;6683;48.506;9.050;2024-01-16T03:23:55;97612.69;;;2.18;54.51
13235;BME280;6683;48.506;9.050;2024-01-16T03:26:59;97611.19;;;2.16;54.40
13235;BME280;6683;48.506;9.050;2024-01-16T03:30:02;97617.00;;;2.10;54.33
13235;BME280;6683;48.506;9.050;2024-01-16T03:33:05;97620.03;;;2.05;54.42
13235;BME280;6683;48.506;9.050;2024-01-16T03:36:07;97622.25;;;2.00;54.39
13235;BME280;6683;48.506;9.050;2024-01-16T03:39:10;97620.09;;;1.96;54.69
13235;BME280;6683;48.506;9.050;2024-01-16T03:42:14;97625.06;;;1.89;54.63
13235;BME280;6683;48.506;9.050;2024-01-16T03:45:16;97636.06;;;1.83;54.58
13235;BME280;6683;48.506;9.050;2024-01-16T03:48:18;97632.56;;;1.75;54.60
13235;BME280;6683;48.506;9.050;2024-01-16T03:51:20;97634.25;;;1.66;54.82
13235;BME280;6683;48.506;9.050;2024-01-16T03:54:22;97633.31;;;1.57;54.80
13235;BME280;6683;48.506;9.050;2024-01-16T03:57:26;97621.31;;;1.47;54.63
13235;BME280;6683;48.506;9.050;2024-01-16T04:00:28;97620.13;;;1.41;54.77
13235;BME280;6683;48.506;9.050;2024-01-16T04:03:30;97620.56;;;1.37;54.72
13235;BME280;6683;48.506;9.050;2024-01-16T04:06:32;97616.75;;;1.31;54.67
13235;BME280;6683;48.506;9.050;2024-01-16T04:09:34;97616.63;;;1.23;54.64
13235;BME280;6683;48.506;9.050;2024-01-16T04:12:38;97615.56;;;1.16;54.73
13235;BME280;6683;48.506;9.050;2024-01-16T04:15:40;97614.50;;;1.09;54.93
13235;BME280;6683;48.506;9.050;2024-01-16T04:18:43;97615.88;;;1.04;54.85
13235;BME280;6683;48.506;9.050;2024-01-16T04:21:45;97621.66;;;0.98;54.93
13235;BME280;6683;48.506;9.050;2024-01-16T04:24:47;97623.84;;;0.93;54.80
13235;BME280;6683;48.506;9.050;2024-01-16T04:27:51;97612.09;;;0.89;54.82
13235;BME280;6683;48.506;9.050;2024-01-16T04:30:53;97617.84;;;0.82;55.06
13235;BME280;6683;48.506;9.050;2024-01-16T04:33:55;97611.72;;;0.74;55.01
13235;BME280;6683;48.506;9.050;2024-01-16T04:36:57;97609.16;;;0.64;54.61
13235;BME280;6683;48.506;9.050;2024-01-16T04:39:59;97611.59;;;0.56;54.68
13235;BME280;6683;48.506;9.050;2024-01-16T04:43:03;97615.03;;;0.47;54.78
13235;BME280;6683;48.506;9.050;2024-01-16T04:46:05;97605.31;;;0.40;54.94
13235;BME280;6683;48.506;9.050;2024-01-16T04:49:07;97608.63;;;0.32;54.88
13235;BME280;6683;48.506;9.050;2024-01-16T04:52:09;97598.94;;;0.25;55.06
13235;BME280;6683;48.506;9.050;2024-01-16T04:55:11;97601.25;;;0.18;54.69
13235;BME280;6683;48.506;9.050;2024-01-16T04:58:14;97614.09;;;0.10;55.38
13235;BME280;6683;48.506;9.050;2024-01-16T05:01:17;97613.50;;;0.07;54.78
13235;BME280;6683;48.506;9.050;2024-01-16T05:04:19;97617.47;;;0.01;54.80
13235;BME280;6683;48.506;9.050;2024-01-16T05:07:23;97615.44;;;-0.05;55.07
13235;BME280;6683;48.506;9.050;2024-01-16T05:10:25;97606.97;;;-0.07;55.06
13235;BME280;6683;48.506;9.050;2024-01-16T05:13:28;97608.72;;;-0.08;54.74
13235;BME280;6683;48.506;9.050;2024-01-16T05:16:30;97608.19;;;-0.11;54.82
13235;BME280;6683;48.506;9.050;2024-01-16T05:19:33;97590.56;;;-0.17;54.31
13235;BME280;6683;48.506;9.050;2024-01-16T05:22:35;97584.97;;;-0.22;54.86
13235;BME280;6683;48.506;9.050;2024-01-16T05:25:39;97595.88;;;-0.28;54.57
13235;BME280;6683;48.506;9.050;2024-01-16T05:28:42;97591.91;;;-0.32;54.79
13235;BME280;6683;48.506;9.050;2024-01-16T05:31:44;97589.56;;;-0.35;54.89
13235;BME280;6683;48.506;9.050;2024-01-16T05:34:46;97583.84;;;-0.39;55.00
13235;BME280;6683;48.506;9.050;2024-01-16T05:37:48;97592.84;;;-0.43;54.94
13235;BME280;6683;48.506;9.050;2024-01-16T05:40:51;97582.03;;;-0.48;55.15
13235;BME280;6683;48.506;9.050;2024-01-16T05:43:55;97579.88;;;-0.52;54.26
13235;BME280;6683;48.506;9.050;2024-01-16T05:46:57;97570.84;;;-0.58;55.08
13235;BME280;6683;48.506;9.050;2024-01-16T05:49:59;97580.78;;;-0.63;54.90
13235;BME280;6683;48.506;9.050;2024-01-16T05:53:01;97573.56;;;-0.69;54.47
13235;BME280;6683;48.506;9.050;2024-01-16T05:56:04;97572.28;;;-0.74;54.58
13235;BME280;6683;48.506;9.050;2024-01-16T05:59:08;97575.41;;;-0.81;54.42
13235;BME280;6683;48.506;9.050;2024-01-16T06:02:10;97580.19;;;-0.86;54.75
13235;BME280;6683;48.506;9.050;2024-01-16T06:05:12;97584.91;;;-0.91;54.53
13235;BME280;6683;48.506;9.050;2024-01-16T06:08:16;97585.44;;;-0.97;54.90
13235;BME280;6683;48.506;9.050;2024-01-16T06:11:30;97591.38;;;-1.06;54.86
13235;BME280;6683;48.506;9.050;2024-01-16T06:14:33;97583.31;;;-1.12;54.57
13235;BME280;6683;48.506;9.050;2024-01-16T06:17:36;97592.97;;;-1.14;54.42
13235;BME280;6683;48.506;9.050;2024-01-16T06:20:38;97595.94;;;-1.19;54.72
13235;BME280;6683;48.506;9.050;2024-01-16T06:23:40;97598.13;;;-1.24;54.56
13235;BME280;6683;48.506;9.050;2024-01-16T06:26:42;97595.06;;;-1.29;54.72
13235;BME280;6683;48.506;9.050;2024-01-16T06:29:45;97591.94;;;-1.32;54.40
13235;BME280;6683;48.506;9.050;2024-01-16T06:32:47;97598.31;;;-1.36;54.78
13235;BME280;6683;48.506;9.050;2024-01-16T06:35:49;97589.16;;;-1.40;55.10
13235;BME280;6683;48.506;9.050;2024-01-16T06:38:51;97591.31;;;-1.45;54.60
13235;BME280;6683;48.506;9.050;2024-01-16T06:41:53;97588.16;;;-1.49;54.85
13235;BME280;6683;48.506;9.050;2024-01-16T06:44:57;97591.13;;;-1.53;55.13
13235;BME280;6683;48.506;9.050;2024-01-16T06:47:59;97582.66;;;-1.55;54.94
13235;BME280;6683;48.506;9.050;2024-01-16T06:51:01;97587.16;;;-1.57;54.83
13235;BME280;6683;48.506;9.050;2024-01-16T06:54:03;97591.63;;;-1.59;55.15
13235;BME280;6683;48.506;9.050;2024-01-16T06:57:05;97593.50;;;-1.62;54.83
13235;BME280;6683;48.506;9.050;2024-01-16T07:00:11;97598.00;;;-1.64;55.41
13235;BME280;6683;48.506;9.050;2024-01-16T07:03:15;97591.88;;;-1.63;54.83
13235;BME280;6683;48.506;9.050;2024-01-16T07:06:18;97584.78;;;-1.61;54.81
13235;BME280;6683;48.506;9.050;2024-01-16T07:09:20;97584.69;;;-1.59;55.47
13235;BME280;6683;48.506;9.050;2024-01-16T07:12:22;97585.63;;;-1.60;55.04
13235;BME280;6683;48.506;9.050;2024-01-16T07:15:25;97585.63;;;-1.60;54.89
13235;BME280;6683;48.506;9.050;2024-01-16T07:18:28;97594.22;;;-1.59;54.72
13235;BME280;6683;48.506;9.050;2024-01-16T07:21:30;97586.59;;;-1.61;54.86
13235;BME280;6683;48.506;9.050;2024-01-16T07:24:32;97588.06;;;-1.58;55.12
13235;BME280;6683;48.506;9.050;2024-01-16T07:27:35;97600.91;;;-1.57;55.15
13235;BME280;6683;48.506;9.050;2024-01-16T07:30:38;97597.34;;;-1.56;55.50
13235;BME280;6683;48.506;9.050;2024-01-16T07:33:41;97600.63;;;-1.54;55.04
13235;BME280;6683;48.506;9.050;2024-01-16T07:36:43;97603.13;;;-1.52;55.00
13235;BME280;6683;48.506;9.050;2024-01-16T07:39:45;97596.84;;;-1.50;54.97
13235;BME280;6683;48.506;9.050;2024-01-16T07:42:47;97598.25;;;-1.46;55.09
13235;BME280;6683;48.506;9.050;2024-01-16T07:45:50;97600.59;;;-1.43;55.03
13235;BME280;6683;48.506;9.050;2024-01-16T07:48:52;97603.63;;;-1.38;55.74
13235;BME280;6683;48.506;9.050;2024-01-16T07:51:55;97602.41;;;-1.34;55.00
13235;BME280;6683;48.506;9.050;2024-01-16T07:54:57;97598.63;;;-1.30;55.60
13235;BME280;6683;48.506;9.050;2024-01-16T07:57:59;97600.69;;;-1.24;55.28
13235;BME280;6683;48.506;9.050;2024-01-16T08:01:05;97600.19;;;-1.18;55.33
13235;BME280;6683;48.506;9.050;2024-01-16T08:04:07;97593.66;;;-1.12;55.21
13235;BME280;6683;48.506;9.050;2024-01-16T08:07:09;97596.56;;;-1.06;55.19
13235;BME280;6683;48.506;9.050;2024-01-16T08:10:11;97593.22;;;-0.97;55.10
13235;BME280;6683;48.506;9.050;2024-01-16T08:13:13;97593.50;;;-0.90;55.52
13235;BME280;6683;48.506;9.050;2024-01-16T08:16:17;97595.59;;;-0.84;55.82
13235;BME280;6683;48.506;9.050;2024-01-16T08:19:19;97598.72;;;-0.81;55.08
13235;BME280;6683;48.506;9.050;2024-01-16T08:22:21;97595.88;;;-0.77;55.88
13235;BME280;6683;48.506;9.050;2024-01-16T08:25:23;97592.19;;;-0.75;55.89
13235;BME280;6683;48.506;9.050;2024-01-16T08:28:25;97591.81;;;-0.70;55.19
13235;BME280;6683;48.506;9.050;2024-01-16T08:31:28;97587.19;;;-0.67;56.01
13235;BME280;6683;48.506;9.050;2024-01-16T08:34:30;97586.78;;;-0.62;55.70
13235;BME280;6683;48.506;9.050;2024-01-16T08:37:33;97594.16;;;-0.58;55.68
13235;BME280;6683;48.506;9.050;2024-01-16T08:40:35;97601.41;;;-0.52;55.53
13235;BME280;6683;48.506;9.050;2024-01-16T08:43:37;97598.41;;;-0.47;55.25
13235;BME280;6683;48.506;9.050;2024-01-16T08:46:41;97599.78;;;-0.43;55.47
13235;BME280;6683;48.506;9.050;2024-01-16T08:49:43;97601.59;;;-0.34;56.10
13235;BME280;6683;48.506;9.050;2024-01-16T08:52:45;97604.47;;;-0.28;55.17
13235;BME280;6683;48.506;9.050;2024-01-16T08:55:47;97608.59;;;-0.25;55.61
13235;BME280;6683;48.506;9.050;2024-01-16T08:58:49;97596.69;;;-0.18;55.32
13235;BME280;6683;48.506;9.050;2024-01-16T09:01:52;97599.56;;;-0.12;55.62
13235;BME280;6683;48.506;9.050;2024-01-16T09:04:54;97604.22;;;-0.06;55.23
13235;BME280;6683;48.506;9.050;2024-01-16T09:07:56;97606.16;;;0.02;55.55
13235;BME280;6683;48.506;9.050;2024-01-16T09:10:58;97593.44;;;0.09;55.80
13235;BME280;6683;48.506;9.050;2024-01-16T09:14:00;97600.41;;;0.18;55.04
13235;BME280;6683;48.506;9.050;2024-01-16T09:17:04;97587.88;;;0.23;54.97
13235;BME280;6683;48.506;9.050;2024-01-16T09:20:08;97591.69;;;0.28;55.04
13235;BME280;6683;48.506;9.050;2024-01-16T09:23:10;97592.22;;;0.32;54.89
13235;BME280;6683;48.506;9.050;2024-01-16T09:26:13;97597.97;;;0.35;55.10
13235;BME280;6683;48.506;9.050;2024-01-16T09:29:15;97597.53;;;0.40;55.25
13235;BME280;6683;48.506;9.050;2024-01-16T09:32:19;97593.59;;;0.45;55.52
13235;BME280;6683;48.506;9.050;2024-01-16T09:35:21;97593.28;;;0.48;55.10
13235;BME280;6683;48.506;9.050;2024-01-16T09:38:23;97590.44;;;0.51;55.06
13235;BME280;6683;48.506;9.050;2024-01-16T09:41:25;97581.94;;;0.59;55.07
13235;BME280;6683;48.506;9.050;2024-01-16T09:44:28;97589.72;;;0.68;55.43
13235;BME280;6683;48.506;9.050;2024-01-16T09:47:31;97579.97;;;0.80;55.24
13235;BME280;6683;48.506;9.050;2024-01-16T09:50:34;97584.19;;;0.91;55.30
13235;BME280;6683;48.506;9.050;2024-01-16T09:53:36;97585.94;;;1.00;55.41
13235;BME280;6683;48.506;9.050;2024-01-16T09:56:42;97581.13;;;1.05;55.06
13235;BME280;6683;48.506;9.050;2024-01-16T09:59:46;97572.63;;;1.12;55.15
13235;BME280;6683;48.506;9.050;2024-01-16T10:02:50;97570.13;;;1.20;55.02
13235;BME280;6683;48.506;9.050;2024-01-16T10:05:52;97568.31;;;1.30;54.93
13235;BME280;6683;48.506;9.050;2024-01-16T10:08:54;97568.41;;;1.38;55.10
13235;BME280;6683;48.506;9.050;2024-01-16T10:11:57;97563.44;;;1.45;55.09
13235;BME280;6683;48.506;9.050;2024-01-16T10:15:01;97560.94;;;1.53;54.93
13235;BME280;6683;48.506;9.050;2024-01-16T10:18:22;97553.53;;;1.58;54.69
13235;BME280;6683;48.506;9.050;2024-01-16T10:21:25;97546.91;;;1.63;54.72
13235;BME280;6683;48.506;9.050;2024-01-16T10:24:30;97541.50;;;1.75;54.84
13235;BME280;6683;48.506;9.050;2024-01-16T10:27:33;97536.38;;;1.83;54.49
13235;BME280;6683;48.506;9.050;2024-01-16T10:30:36;97533.25;;;1.97;54.45
13235;BME280;6683;48.506;9.050;2024-01-16T10:33:39;97537.78;;;2.12;54.31
13235;BME280;6683;48.506;9.050;2024-01-16T10:36:42;97542.56;;;2.42;54.53
13235;BME280;6683;48.506;9.050;2024-01-16T10:39:50;97545.09;;;2.78;54.35
13235;BME280;6683;48.506;9.050;2024-01-16T10:42:59;97531.53;;;3.34;53.93
13235;BME280;6683;48.506;9.050;2024-01-16T10:46:10;97518.47;;;4.16;53.21
13235;BME280;6683;48.506;9.050;2024-01-16T10:49:14;97515.47;;;4.91;53.12
13235;BME280;6683;48.506;9.050;2024-01-16T10:52:18;97505.69;;;5.62;51.95
13235;BME280;6683;48.506;9.050;2024-01-16T10:55:22;97509.25;;;6.23;50.88
13235;BME280;6683;48.506;9.050;2024-01-16T10:58:24;97506.00;;;6.73;51.33
13235;BME280;6683;48.506;9.050;2024-01-16T11:01:28;97501.59;;;7.17;50.84
13235;BME280;6683;48.506;9.050;2024-01-16T11:04:33;97493.66;;;7.61;50.35
13235;BME280;6683;48.506;9.050;2024-01-16T11:07:36;97489.75;;;8.14;49.73
13235;BME280;6683;48.506;9.050;2024-01-16T11:10:39;97495.31;;;8.67;49.30
13235;BME280;6683;48.506;9.050;2024-01-16T11:13:42;97494.75;;;9.06;48.55
13235;BME280;6683;48.506;9.050;2024-01-16T11:16:47;97472.44;;;9.43;48.63
13235;BME280;6683;48.506;9.050;2024-01-16T11:19:51;97462.44;;;9.86;48.29
13235;BME280;6683;48.506;9.050;2024-01-16T11:22:54;97463.97;;;10.27;47.83
13235;BME280;6683;48.506;9.050;2024-01-16T11:26:00;97457.66;;;10.68;46.96
13235;BME280;6683;48.506;9.050;2024-01-16T11:29:35;97443.59;;;10.87;47.09
13235;BME280;6683;48.506;9.050;2024-01-16T11:32:39;97452.28;;;11.20;46.71
13235;BME280;6683;48.506;9.050;2024-01-16T11:35:43;97441.13;;;11.56;45.93
13235;BME280;6683;48.506;9.050;2024-01-16T11:38:46;97432.63;;;11.91;45.35
13235;BME280;6683;48.506;9.050;2024-01-16T11:41:52;97424.31;;;12.19;44.20
13235;BME280;6683;48.506;9.050;2024-01-16T11:44:54;97414.31;;;12.46;44.24
13235;BME280;6683;48.506;9.050;2024-01-16T11:48:09;97409.06;;;12.64;44.05
13235;BME280;6683;48.506;9.050;2024-01-16T11:51:26;97404.72;;;12.88;43.89
13235;BME280;6683;48.506;9.050;2024-01-16T11:54:28;97396.22;;;13.04;43.80
13235;BME280;6683;48.506;9.050;2024-01-16T11:57:51;97382.63;;;13.18;43.07
13235;BME280;6683;48.506;9.050;2024-01-16T12:01:01;97381.47;;;13.44;42.62
13235;BME280;6683;48.506;9.050;2024-01-16T12:04:04;97373.69;;;13.60;42.43
13235;BME280;6683;48.506;9.050;2024-01-16T12:07:08;97363.59;;;13.69;41.78
13235;BME280;6683;48.506;9.050;2024-01-16T12:10:11;97355.19;;;13.72;41.83
13235;BME280;6683;48.506;9.050;2024-01-16T12:13:14;97353.31;;;13.73;41.56
13235;BME280;6683;48.506;9.050;2024-01-16T12:16:19;97353.56;;;13.41;41.40
13235;BME280;6683;48.506;9.050;2024-01-16T12:19:21;97357.31;;;12.68;42.19
13235;BME280;6683;48.506;9.050;2024-01-16T12:22:25;97351.78;;;12.27;41.99
13235;BME280;6683;48.506;9.050;2024-01-16T12:25:28;97341.13;;;11.90;42.24
13235;BME280;6683;48.506;9.050;2024-01-16T12:28:31;97332.44;;;11.46;42.89
13235;BME280;6683;48.506;9.050;2024-01-16T12:31:33;97325.31;;;11.08;43.53
13235;BME280;6683;48.506;9.050;2024-01-16T12:34:45;97317.69;;;10.94;43.41
13235;BME280;6683;48.506;9.050;2024-01-16T12:38:00;97319.34;;;10.82;42.80
13235;BME280;6683;48.506;9.050;2024-01-16T12:41:06;97313.75;;;10.59;42.86
13235;BME280;6683;48.506;9.050;2024-01-16T12:44:09;97314.63;;;10.26;43.29
13235;BME280;6683;48.506;9.050;2024-01-16T12:47:15;97305.34;;;9.78;43.55
13235;BME280;6683;48.506;9.050;2024-01-16T12:50:21;97290.31;;;9.46;43.64
13235;BME280;6683;48.506;9.050;2024-01-16T12:53:25;97290.69;;;9.17;43.82
13235;BME280;6683;48.506;9.050;2024-01-16T12:56:27;97283.53;;;8.98;44.15
13235;BME280;6683;48.506;9.050;2024-01-16T12:59:29;97285.72;;;8.81;43.80
13235;BME280;6683;48.506;9.050;2024-01-16T13:02:31;97277.50;;;8.50;44.07
13235;BME280;6683;48.506;9.050;2024-01-16T13:05:34;97282.97;;;8.21;44.20
13235;BME280;6683;48.506;9.050;2024-01-16T13:08:37;97291.22;;;7.83;44.28
13235;BME280;6683;48.506;9.050;2024-01-16T13:11:50;97279.22;;;7.47;44.64
13235;BME280;6683;48.506;9.050;2024-01-16T13:14:52;97278.97;;;7.20;45.10
13235;BME280;6683;48.506;9.050;2024-01-16T13:17:54;97285.84;;;7.00;45.31
13235;BME280;6683;48.506;9.050;2024-01-16T13:20:58;97287.06;;;6.83;45.48
13235;BME280;6683;48.506;9.050;2024-01-16T13:24:03;97279.59;;;6.66;45.47
13235;BME280;6683;48.506;9.050;2024-01-16T13:27:05;97282.06;;;6.53;45.64
13235;BME280;6683;48.506;9.050;2024-01-16T13:30:11;97287.34;;;6.38;45.35
13235;BME280;6683;48.506;9.050;2024-01-16T13:33:15;97278.66;;;6.23;46.04
13235;BME280;6683;48.506;9.050;2024-01-16T13:36:17;97268.63;;;6.12;45.68
13235;BME280;6683;48.506;9.050;2024-01-16T13:39:20;97264.22;;;5.98;45.59
13235;BME280;6683;48.506;9.050;2024-01-16T13:42:22;97269.53;;;5.90;45.97
13235;BME280;6683;48.506;9.050;2024-01-16T13:45:24;97274.84;;;5.82;46.29
13235;BME280;6683;48.506;9.050;2024-01-16T13:48:27;97273.91;;;5.75;46.53
13235;BME280;6683;48.506;9.050;2024-01-16T13:51:29;97269.38;;;5.68;46.02
13235;BME280;6683;48.506;9.050;2024-01-16T13:54:32;97263.84;;;5.63;46.38
13235;BME280;6683;48.506;9.050;2024-01-16T13:57:34;97260.34;;;5.56;45.86
13235;BME280;6683;48.506;9.050;2024-01-16T14:00:37;97257.44;;;5.51;45.72
13235;BME280;6683;48.506;9.050;2024-01-16T14:03:39;97262.75;;;5.43;46.04
13235;BME280;6683;48.506;9.050;2024-01-16T14:06:43;97253.19;;;5.36;46.18
13235;BME280;6683;48.506;9.050;2024-01-16T14:09:47;97257.28;;;5.30;45.89
13235;BME280;6683;48.506;9.050;2024-01-16T14:12:50;97258.28;;;5.29;46.68
13235;BME280;6683;48.506;9.050;2024-01-16T14:15:53;97248.16;;;5.26;46.82
13235;BME280;6683;48.506;9.050;2024-01-16T14:18:55;97248.16;;;5.26;46.69
13235;BME280;6683;48.506;9.050;2024-01-16T14:21:57;97247.34;;;5.26;46.36
13235;BME280;6683;48.506;9.050;2024-01-16T14:25:00;97246.72;;;5.24;46.56
13235;BME280;6683;48.506;9.050;2024-01-16T14:28:03;97249.50;;;5.22;46.77
13235;BME280;6683;48.506;9.050;2024-01-16T14:31:06;97251.16;;;5.23;46.53
13235;BME280;6683;48.506;9.050;2024-01-16T14:34:10;97249.50;;;5.22;46.85
13235;BME280;6683;48.506;9.050;2024-01-16T14:37:12;97243.66;;;5.20;47.00
13235;BME280;6683;48.506;9.050;2024-01-16T14:40:16;97236.97;;;5.18;46.58
13235;BME280;6683;48.506;9.050;2024-01-16T14:43:21;97225.22;;;5.14;46.41
13235;BME280;6683;48.506;9.050;2024-01-16T14:46:23;97238.31;;;5.14;46.58
13235;BME280;6683;48.506;9.050;2024-01-16T14:49:25;97231.28;;;5.14;46.37
13235;BME280;6683;48.506;9.050;2024-01-16T14:52:32;97242.56;;;5.15;46.96
13235;BME280;6683;48.506;9.050;2024-01-16T14:55:35;97233.25;;;5.12;46.73
13235;BME280;6683;48.506;9.050;2024-01-16T14:58:38;97235.22;;;5.10;46.74
13235;BME280;6683;48.506;9.050;2024-01-16T15:01:40;97234.59;;;5.08;46.58
13235;BME280;6683;48.506;9.050;2024-01-16T15:04:43;97234.16;;;5.05;46.95
13235;BME280;6683;48.506;9.050;2024-01-16T15:07:45;97230.06;;;5.02;46.28
13235;BME280;6683;48.506;9.050;2024-01-16T15:10:48;97230.59;;;4.98;46.49
13235;BME280;6683;48.506;9.050;2024-01-16T15:13:50;97242.38;;;4.94;46.89
13235;BME280;6683;48.506;9.050;2024-01-16T15:16:53;97235.25;;;4.88;46.83
13235;BME280;6683;48.506;9.050;2024-01-16T15:19:55;97240.16;;;4.82;46.51
13235;BME280;6683;48.506;9.050;2024-01-16T15:22:57;97247.56;;;4.79;46.68
13235;BME280;6683;48.506;9.050;2024-01-16T15:26:01;97239.59;;;4.72;46.50
13235;BME280;6683;48.506;9.050;2024-01-16T15:29:04;97238.31;;;4.68;46.45
13235;BME280;6683;48.506;9.050;2024-01-16T15:32:07;97240.97;;;4.60;46.75
13235;BME280;6683;48.506;9.050;2024-01-16T15:35:09;97239.19;;;4.53;46.91
13235;BME280;6683;48.506;9.050;2024-01-16T15:38:11;97237.63;;;4.44;47.13
13235;BME280;6683;48.506;9.050;2024-01-16T15:41:15;97248.47;;;4.33;46.47
13235;BME280;6683;48.506;9.050;2024-01-16T15:44:17;97244.59;;;4.21;46.85
13235;BME280;6683;48.506;9.050;2024-01-16T15:47:19;97239.75;;;4.10;47.14
13235;BME280;6683;48.506;9.050;2024-01-16T15:50:21;97254.78;;;3.99;46.55
13235;BME280;6683;48.506;9.050;2024-01-16T15:53:24;97254.00;;;3.91;46.62
13235;BME280;6683;48.506;9.050;2024-01-16T15:56:27;97257.59;;;3.82;46.92
13235;BME280;6683;48.506;9.050;2024-01-16T15:59:29;97252.41;;;3.74;46.71
13235;BME280;6683;48.506;9.050;2024-01-16T16:02:31;97250.00;;;3.64;46.96
13235;BME280;6683;48.506;9.050;2024-01-16T16:05:34;97259.81;;;3.54;46.92
13235;BME280;6683;48.506;9.050;2024-01-16T16:08:36;97268.13;;;3.42;47.34
13235;BME280;6683;48.506;9.050;2024-01-16T16:11:42;97273.84;;;3.29;47.51
13235;BME280;6683;48.506;9.050;2024-01-16T16:14:45;97276.13;;;3.16;47.10
13235;BME280;6683;48.506;9.050;2024-01-16T16:17:47;97283.59;;;3.03;47.44
13235;BME280;6683;48.506;9.050;2024-01-16T16:20:49;97277.72;;;2.93;47.66
13235;BME280;6683;48.506;9.050;2024-01-16T16:23:51;97281.16;;;2.85;47.69
13235;BME280;6683;48.506;9.050;2024-01-16T16:26:56;97281.94;;;2.78;47.89
13235;BME280;6683;48.506;9.050;2024-01-16T16:30:00;97284.69;;;2.68;47.48
13235;BME280;6683;48.506;9.050;2024-01-16T16:33:02;97267.41;;;2.59;48.09